createdAt,value
2017-11-30T00:00:11.607Z,3.72
2017-11-30T00:01:20.447Z,3.66
2017-11-30T00:02:29.389Z,3.68
2017-11-30T00:03:38.233Z,3.76
2017-11-30T00:04:47.075Z,3.75
2017-11-30T00:05:55.914Z,3.7
2017-11-30T00:07:04.759Z,3.72
2017-11-30T00:08:13.747Z,3.73
2017-11-30T00:09:22.593Z,3.69
2017-11-30T00:10:31.436Z,3.76
2017-11-30T00:11:40.559Z,3.66
2017-11-30T00:12:49.398Z,3.7
2017-11-30T00:13:58.244Z,3.65
2017-11-30T00:15:07.084Z,3.7
2017-11-30T00:16:15.921Z,3.69
2017-11-30T00:17:24.764Z,3.6
2017-11-30T00:18:33.887Z,3.69
2017-11-30T00:19:42.830Z,3.58
2017-11-30T00:20:51.672Z,3.57
2017-11-30T00:22:00.516Z,3.5
2017-11-30T00:23:09.358Z,3.69
2017-11-30T00:24:18.204Z,3.66
2017-11-30T00:25:27.347Z,3.52
2017-11-30T00:26:36.198Z,3.65
2017-11-30T00:27:45.031Z,3.68
2017-11-30T00:28:53.882Z,3.72
2017-11-30T00:30:02.719Z,3.72
2017-11-30T00:31:11.711Z,3.62
2017-11-30T00:32:20.548Z,3.5
2017-11-30T00:33:29.385Z,3.52
2017-11-30T00:34:38.233Z,3.72
2017-11-30T00:35:47.356Z,3.55
2017-11-30T00:36:56.350Z,3.54
2017-11-30T00:38:05.194Z,3.52
2017-11-30T00:39:14.599Z,3.48
2017-11-30T00:40:23.441Z,3.57
2017-11-30T00:41:32.284Z,3.5
2017-11-30T00:42:41.333Z,3.57
2017-11-30T00:43:50.184Z,3.51
2017-11-30T00:44:59.014Z,3.54
2017-11-30T00:46:07.858Z,3.6
2017-11-30T00:47:16.701Z,3.54
2017-11-30T00:48:26.077Z,3.52
2017-11-30T00:49:35.215Z,3.52
2017-11-30T00:50:44.332Z,3.52
2017-11-30T00:51:53.170Z,3.54
2017-11-30T00:53:02.021Z,3.45
2017-11-30T00:54:10.856Z,3.47
2017-11-30T00:55:19.700Z,3.51
2017-11-30T00:56:28.824Z,3.54
2017-11-30T00:57:37.946Z,3.66
2017-11-30T00:58:46.788Z,3.51
2017-11-30T00:59:55.777Z,3.54
2017-11-30T01:01:04.619Z,3.51
2017-11-30T01:02:13.463Z,3.54
2017-11-30T01:03:22.301Z,3.54
2017-11-30T01:04:31.145Z,3.5
2017-11-30T01:05:40.037Z,3.5
2017-11-30T01:06:48.878Z,3.54
2017-11-30T01:07:57.719Z,3.54
2017-11-30T01:09:06.565Z,3.52
2017-11-30T01:10:15.404Z,3.54
2017-11-30T01:11:24.344Z,3.54
2017-11-30T01:12:33.187Z,3.45
2017-11-30T01:13:42.033Z,3.48
2017-11-30T01:14:50.868Z,3.43
2017-11-30T01:15:59.709Z,3.33
2017-11-30T01:17:08.703Z,3.36
2017-11-30T01:18:17.546Z,3.35
2017-11-30T01:19:26.390Z,3.35
2017-11-30T01:20:35.228Z,3.32
2017-11-30T01:21:44.353Z,3.35
2017-11-30T01:22:53.249Z,3.48
2017-11-30T01:24:02.424Z,3.48
2017-11-30T01:25:11.264Z,3.4
2017-11-30T01:26:20.104Z,3.45
2017-11-30T01:27:28.944Z,3.43
2017-11-30T01:28:37.941Z,3.45
2017-11-30T01:29:46.777Z,3.4
2017-11-30T01:30:55.618Z,3.35
2017-11-30T01:32:04.750Z,3.39
2017-11-30T01:33:13.869Z,3.48
2017-11-30T01:34:22.714Z,3.45
2017-11-30T01:35:31.558Z,3.42
2017-11-30T01:36:40.404Z,3.4
2017-11-30T01:37:49.246Z,3.42
2017-11-30T01:38:58.091Z,3.42
2017-11-30T01:40:07.426Z,3.43
2017-11-30T01:41:16.268Z,3.51
2017-11-30T01:42:25.114Z,3.36
2017-11-30T01:43:34.237Z,3.43
2017-11-30T01:44:43.077Z,3.45
2017-11-30T01:45:51.966Z,3.4
2017-11-30T01:47:00.808Z,3.43
2017-11-30T01:48:09.650Z,3.43
2017-11-30T01:49:18.492Z,3.43
2017-11-30T01:50:27.334Z,3.45
2017-11-30T01:51:36.178Z,3.5
2017-11-30T01:52:45.021Z,3.51
2017-11-30T01:53:53.868Z,3.52
2017-11-30T01:55:02.710Z,3.5
2017-11-30T01:56:11.547Z,3.52
2017-11-30T01:57:20.494Z,3.57
2017-11-30T01:58:29.330Z,3.54
2017-11-30T01:59:38.170Z,3.54
2017-11-30T02:00:47.012Z,3.54
2017-11-30T02:01:55.851Z,3.55
2017-11-30T02:03:04.694Z,3.69
2017-11-30T02:04:13.539Z,3.88
2017-11-30T02:05:22.380Z,3.7
2017-11-30T02:06:31.222Z,3.7
2017-11-30T02:07:40.064Z,3.58
2017-11-30T02:08:49.057Z,3.68
2017-11-30T02:09:57.901Z,3.54
2017-11-30T02:11:06.741Z,3.52
2017-11-30T02:12:15.585Z,3.54
2017-11-30T02:13:24.425Z,3.54
2017-11-30T02:14:33.417Z,3.54
2017-11-30T02:15:42.256Z,3.57
2017-11-30T02:16:51.102Z,3.54
2017-11-30T02:17:59.943Z,3.52
2017-11-30T02:19:08.784Z,3.5
2017-11-30T02:20:17.777Z,3.47
2017-11-30T02:21:26.620Z,3.47
2017-11-30T02:22:35.462Z,3.69
2017-11-30T02:23:44.309Z,3.51
2017-11-30T02:24:53.434Z,3.52
2017-11-30T02:26:02.853Z,3.54
2017-11-30T02:27:11.695Z,3.47
2017-11-30T02:28:20.816Z,3.54
2017-11-30T02:29:29.655Z,3.47
2017-11-30T02:30:38.792Z,3.43
2017-11-30T02:31:47.781Z,3.36
2017-11-30T02:32:56.624Z,3.48
2017-11-30T02:34:05.467Z,3.35
2017-11-30T02:35:14.310Z,3.42
2017-11-30T02:36:23.153Z,3.39
2017-11-30T02:37:32.045Z,3.35
2017-11-30T02:38:40.893Z,3.24
2017-11-30T02:39:50.009Z,3.35
2017-11-30T02:40:59.134Z,3.39
2017-11-30T02:42:07.978Z,3.39
2017-11-30T02:43:18.264Z,3.36
2017-11-30T02:44:27.103Z,3.39
2017-11-30T02:45:35.989Z,3.33
2017-11-30T02:46:44.789Z,3.36
2017-11-30T02:47:53.630Z,3.48
2017-11-30T02:49:02.623Z,3.39
2017-11-30T02:50:11.475Z,3.39
2017-11-30T02:51:20.310Z,3.43
2017-11-30T02:52:29.152Z,3.47
2017-11-30T02:53:38.275Z,3.4
2017-11-30T02:54:47.216Z,3.35
2017-11-30T02:55:56.058Z,3.36
2017-11-30T02:57:04.898Z,3.4
2017-11-30T02:58:13.745Z,3.36
2017-11-30T02:59:22.871Z,3.39
2017-11-30T03:00:32.114Z,3.32
2017-11-30T03:01:40.959Z,3.43
2017-11-30T03:02:49.798Z,3.43
2017-11-30T03:03:58.642Z,3.43
2017-11-30T03:05:07.538Z,3.48
2017-11-30T03:06:16.808Z,3.52
2017-11-30T03:07:25.946Z,3.52
2017-11-30T03:08:35.067Z,3.68
2017-11-30T03:09:43.906Z,3.65
2017-11-30T03:10:52.749Z,3.51
2017-11-30T03:12:01.891Z,3.51
2017-11-30T03:13:10.735Z,3.84
2017-11-30T03:14:19.577Z,3.62
2017-11-30T03:15:28.420Z,3.65
2017-11-30T03:16:37.263Z,3.68
2017-11-30T03:17:46.497Z,3.58
2017-11-30T03:18:55.337Z,3.57
2017-11-30T03:20:04.181Z,3.58
2017-11-30T03:21:13.023Z,3.55
2017-11-30T03:22:21.866Z,3.48
2017-11-30T03:23:30.708Z,3.51
2017-11-30T03:24:39.553Z,3.52
2017-11-30T03:25:48.394Z,3.45
2017-11-30T03:26:57.236Z,3.54
2017-11-30T03:28:06.358Z,3.57
2017-11-30T03:29:15.204Z,3.6
2017-11-30T03:30:24.048Z,3.55
2017-11-30T03:31:32.895Z,3.58
2017-11-30T03:32:42.300Z,3.51
2017-11-30T03:33:51.428Z,3.57
2017-11-30T03:35:00.418Z,3.5
2017-11-30T03:36:09.265Z,3.5
2017-11-30T03:37:18.102Z,3.55
2017-11-30T03:38:26.945Z,3.51
2017-11-30T03:39:35.787Z,3.52
2017-11-30T03:40:45.215Z,3.57
2017-11-30T03:41:54.060Z,3.52
2017-11-30T03:43:02.901Z,3.54
2017-11-30T03:44:11.747Z,3.52
2017-11-30T03:45:20.586Z,3.57
2017-11-30T03:46:29.428Z,3.58
2017-11-30T03:47:38.269Z,3.66
2017-11-30T03:48:47.113Z,3.7
2017-11-30T03:49:55.953Z,3.62
2017-11-30T03:51:04.796Z,3.62
2017-11-30T03:52:13.746Z,3.69
2017-11-30T03:53:22.585Z,3.5
2017-11-30T03:54:31.423Z,3.55
2017-11-30T03:55:40.270Z,3.52
2017-11-30T03:56:49.115Z,3.6
2017-11-30T03:57:58.053Z,3.51
2017-11-30T03:59:06.896Z,3.58
2017-11-30T04:00:15.743Z,3.61
2017-11-30T04:01:24.580Z,3.54
2017-11-30T04:02:33.425Z,3.54
2017-11-30T04:03:42.798Z,3.54
2017-11-30T04:04:51.644Z,3.54
2017-11-30T04:06:00.484Z,3.45
2017-11-30T04:07:09.329Z,3.47
2017-11-30T04:08:18.452Z,3.51
2017-11-30T04:09:27.595Z,3.47
2017-11-30T04:10:36.435Z,3.45
2017-11-30T04:11:45.274Z,3.48
2017-11-30T04:12:54.120Z,3.5
2017-11-30T04:14:03.254Z,3.5
2017-11-30T04:15:12.415Z,3.48
2017-11-30T04:16:21.258Z,3.45
2017-11-30T04:17:30.101Z,3.42
2017-11-30T04:18:38.943Z,3.48
2017-11-30T04:19:47.784Z,3.4
2017-11-30T04:20:56.788Z,3.35
2017-11-30T04:22:05.615Z,3.43
2017-11-30T04:23:14.458Z,3.45
2017-11-30T04:24:23.308Z,3.51
2017-11-30T04:25:32.430Z,3.4
2017-11-30T04:26:41.333Z,3.33
2017-11-30T04:27:50.168Z,3.35
2017-11-30T04:28:59.011Z,3.39
2017-11-30T04:30:07.863Z,3.35
2017-11-30T04:31:16.697Z,3.32
2017-11-30T04:32:25.688Z,3.32
2017-11-30T04:33:34.528Z,3.33
2017-11-30T04:34:43.371Z,3.31
2017-11-30T04:35:52.211Z,3.26
2017-11-30T04:37:01.053Z,3.33
2017-11-30T04:38:09.996Z,3.32
2017-11-30T04:39:18.840Z,3.42
2017-11-30T04:40:27.684Z,3.35
2017-11-30T04:41:36.534Z,3.32
2017-11-30T04:42:45.362Z,3.31
2017-11-30T04:43:54.353Z,3.4
2017-11-30T04:45:03.195Z,3.35
2017-11-30T04:46:12.038Z,3.31
2017-11-30T04:47:20.880Z,3.52
2017-11-30T04:48:29.718Z,3.31
2017-11-30T04:49:38.990Z,3.36
2017-11-30T04:50:47.830Z,3.35
2017-11-30T04:51:56.674Z,3.4
2017-11-30T04:53:05.513Z,3.45
2017-11-30T04:54:14.354Z,3.31
2017-11-30T04:55:23.446Z,3.35
2017-11-30T04:56:32.287Z,3.54
2017-11-30T04:57:41.136Z,3.43
2017-11-30T04:58:50.261Z,3.33
2017-11-30T04:59:59.104Z,3.4
2017-11-30T05:01:08.094Z,3.33
2017-11-30T05:02:16.937Z,3.43
2017-11-30T05:03:25.775Z,3.39
2017-11-30T05:04:34.632Z,3.35
2017-11-30T05:05:43.456Z,3.35
2017-11-30T05:06:52.300Z,3.33
2017-11-30T05:08:01.144Z,3.35
2017-11-30T05:09:10.265Z,3.32
2017-11-30T05:10:19.386Z,3.35
2017-11-30T05:11:28.230Z,3.36
2017-11-30T05:12:37.323Z,3.45
2017-11-30T05:13:46.161Z,3.4
2017-11-30T05:14:55.002Z,3.36
2017-11-30T05:16:03.842Z,3.33
2017-11-30T05:17:12.688Z,3.35
2017-11-30T05:18:21.690Z,3.42
2017-11-30T05:19:30.523Z,3.33
2017-11-30T05:20:39.364Z,3.35
2017-11-30T05:21:48.205Z,3.31
2017-11-30T05:22:57.045Z,3.33
2017-11-30T05:24:05.937Z,3.39
2017-11-30T05:25:14.782Z,3.35
2017-11-30T05:26:23.620Z,3.45
2017-11-30T05:27:32.463Z,3.31
2017-11-30T05:28:41.306Z,3.26
2017-11-30T05:29:50.544Z,3.23
2017-11-30T05:30:59.387Z,3.23
2017-11-30T05:32:08.228Z,3.26
2017-11-30T05:33:17.070Z,3.24
2017-11-30T05:34:25.911Z,3.15
2017-11-30T05:35:34.756Z,3.26
2017-11-30T05:36:43.594Z,3.29
2017-11-30T05:37:52.441Z,3.23
2017-11-30T05:39:01.285Z,3.24
2017-11-30T05:40:10.128Z,3.24
2017-11-30T05:41:18.972Z,3.28
2017-11-30T05:42:27.812Z,3.33
2017-11-30T05:43:36.659Z,3.24
2017-11-30T05:44:46.082Z,3.23
2017-11-30T05:45:54.923Z,3.31
2017-11-30T05:47:03.962Z,3.35
2017-11-30T05:48:12.805Z,3.23
2017-11-30T05:49:21.641Z,3.28
2017-11-30T05:50:30.486Z,3.39
2017-11-30T05:51:39.327Z,3.42
2017-11-30T05:52:48.325Z,3.4
2017-11-30T05:53:57.161Z,3.4
2017-11-30T05:55:06.003Z,3.4
2017-11-30T05:56:14.846Z,3.42
2017-11-30T05:57:23.685Z,3.47
2017-11-30T05:58:32.576Z,3.52
2017-11-30T05:59:41.422Z,3.57
2017-11-30T06:00:50.266Z,3.68
2017-11-30T06:01:59.389Z,3.75
2017-11-30T06:03:08.510Z,3.7
2017-11-30T06:04:17.650Z,3.78
2017-11-30T06:05:26.494Z,3.73
2017-11-30T06:06:35.616Z,3.69
2017-11-30T06:07:44.459Z,3.68
2017-11-30T06:08:53.300Z,3.75
2017-11-30T06:10:02.348Z,3.65
2017-11-30T06:11:11.190Z,3.66
2017-11-30T06:12:20.033Z,3.66
2017-11-30T06:13:28.875Z,3.73
2017-11-30T06:14:37.719Z,3.65
2017-11-30T06:15:46.850Z,3.66
2017-11-30T06:16:55.695Z,3.54
2017-11-30T06:18:04.535Z,3.58
2017-11-30T06:19:13.380Z,3.54
2017-11-30T06:20:23.085Z,3.5
2017-11-30T06:21:32.209Z,3.51
2017-11-30T06:22:41.052Z,3.54
2017-11-30T06:23:49.942Z,3.65
2017-11-30T06:24:58.792Z,3.7
2017-11-30T06:26:07.635Z,3.61
2017-11-30T06:27:16.680Z,3.52
2017-11-30T06:28:25.522Z,3.52
2017-11-30T06:29:34.366Z,3.51
2017-11-30T06:30:43.208Z,3.62
2017-11-30T06:31:52.051Z,3.65
2017-11-30T06:33:00.999Z,3.58
2017-11-30T06:34:09.842Z,3.52
2017-11-30T06:35:18.682Z,3.54
2017-11-30T06:36:27.535Z,3.51
2017-11-30T06:37:36.373Z,3.68
2017-11-30T06:38:45.320Z,3.69
2017-11-30T06:39:54.161Z,3.75
2017-11-30T06:41:03.005Z,3.68
2017-11-30T06:42:11.849Z,3.55
2017-11-30T06:43:20.692Z,3.6
2017-11-30T06:44:29.588Z,3.54
2017-11-30T06:45:38.429Z,3.66
2017-11-30T06:46:47.274Z,3.65
2017-11-30T06:47:56.117Z,3.73
2017-11-30T06:49:04.963Z,3.65
2017-11-30T06:50:13.804Z,3.61
2017-11-30T06:51:22.935Z,3.69
2017-11-30T06:52:31.780Z,3.65
2017-11-30T06:53:40.637Z,3.57
2017-11-30T06:54:49.471Z,3.68
2017-11-30T06:55:58.369Z,3.65
2017-11-30T06:57:07.205Z,3.54
2017-11-30T06:58:16.050Z,3.57
2017-11-30T06:59:24.894Z,3.54
2017-11-30T07:00:33.733Z,3.47
2017-11-30T07:01:42.632Z,3.55
2017-11-30T07:02:51.471Z,3.54
2017-11-30T07:04:00.315Z,3.55
2017-11-30T07:05:09.157Z,3.57
2017-11-30T07:06:18.008Z,3.52
2017-11-30T07:07:26.895Z,3.55
2017-11-30T07:08:35.739Z,3.62
2017-11-30T07:09:44.585Z,3.62
2017-11-30T07:10:53.435Z,3.66
2017-11-30T07:12:02.276Z,3.68
2017-11-30T07:13:11.524Z,3.68
2017-11-30T07:14:20.373Z,3.55
2017-11-30T07:15:29.214Z,3.61
2017-11-30T07:16:38.336Z,3.62
2017-11-30T07:17:47.178Z,3.58
2017-11-30T07:18:57.374Z,3.79
2017-11-30T07:20:06.217Z,3.69
2017-11-30T07:21:15.063Z,3.65
2017-11-30T07:22:23.909Z,3.62
2017-11-30T07:23:32.753Z,3.69
2017-11-30T07:24:41.748Z,3.66
2017-11-30T07:25:50.894Z,3.75
2017-11-30T07:27:00.001Z,3.68
2017-11-30T07:28:08.846Z,3.65
2017-11-30T07:29:17.974Z,3.6
2017-11-30T07:30:27.021Z,3.72
2017-11-30T07:31:35.860Z,3.66
2017-11-30T07:32:44.999Z,3.68
2017-11-30T07:33:53.846Z,3.6
2017-11-30T07:35:02.691Z,3.57
2017-11-30T07:36:11.684Z,3.75
2017-11-30T07:37:20.812Z,3.65
2017-11-30T07:38:29.658Z,3.69
2017-11-30T07:39:38.503Z,3.72
2017-11-30T07:40:47.352Z,3.7
2017-11-30T07:41:56.295Z,3.66
2017-11-30T07:43:05.418Z,3.69
2017-11-30T07:44:14.266Z,3.62
2017-11-30T07:45:23.108Z,3.52
2017-11-30T07:46:31.951Z,3.65
2017-11-30T07:47:40.796Z,3.69
2017-11-30T07:48:49.636Z,3.69
2017-11-30T07:49:58.481Z,3.66
2017-11-30T07:51:07.329Z,3.65
2017-11-30T07:52:16.453Z,3.65
2017-11-30T07:53:25.875Z,3.66
2017-11-30T07:54:34.719Z,3.8
2017-11-30T07:55:43.562Z,3.61
2017-11-30T07:56:52.411Z,3.7
2017-11-30T07:58:01.250Z,3.66
2017-11-30T07:59:10.494Z,3.72
2017-11-30T08:00:19.340Z,3.72
2017-11-30T08:01:28.182Z,3.6
2017-11-30T08:02:37.032Z,3.73
2017-11-30T08:03:45.874Z,3.68
2017-11-30T08:04:54.815Z,3.72
2017-11-30T08:06:03.662Z,3.73
2017-11-30T08:07:12.503Z,3.75
2017-11-30T08:08:21.630Z,3.7
2017-11-30T08:09:30.473Z,3.68
2017-11-30T08:10:39.466Z,3.7
2017-11-30T08:11:48.602Z,3.65
2017-11-30T08:12:57.445Z,3.69
2017-11-30T08:14:06.584Z,3.7
2017-11-30T08:15:15.428Z,3.73
2017-11-30T08:16:24.584Z,3.65
2017-11-30T08:17:33.416Z,3.66
2017-11-30T08:18:42.263Z,3.7
2017-11-30T08:19:51.109Z,3.69
2017-11-30T08:20:59.951Z,3.66
2017-11-30T08:22:09.337Z,3.68
2017-11-30T08:23:18.482Z,3.73
2017-11-30T08:24:27.329Z,3.73
2017-11-30T08:25:36.177Z,3.78
2017-11-30T08:26:45.028Z,3.75
2017-11-30T08:27:53.966Z,3.7
2017-11-30T08:29:03.101Z,3.8
2017-11-30T08:30:11.953Z,3.75
2017-11-30T08:31:21.082Z,3.78
2017-11-30T08:32:30.204Z,3.76
2017-11-30T08:33:39.199Z,3.76
2017-11-30T08:34:48.041Z,3.78
2017-11-30T08:35:56.884Z,3.84
2017-11-30T08:37:06.008Z,3.8
2017-11-30T08:38:14.849Z,3.76
2017-11-30T08:39:23.693Z,3.73
2017-11-30T08:40:32.816Z,3.75
2017-11-30T08:41:41.660Z,3.72
2017-11-30T08:42:50.512Z,3.7
2017-11-30T08:43:59.354Z,3.68
2017-11-30T08:45:08.268Z,3.69
2017-11-30T08:46:17.102Z,3.68
2017-11-30T08:47:25.943Z,3.65
2017-11-30T08:48:34.786Z,3.75
2017-11-30T08:49:43.910Z,3.68
2017-11-30T08:50:52.805Z,3.7
2017-11-30T08:52:01.646Z,3.73
2017-11-30T08:53:10.490Z,3.73
2017-11-30T08:54:19.338Z,3.7
2017-11-30T08:55:28.178Z,3.62
2017-11-30T08:56:37.272Z,3.7
2017-11-30T08:57:46.122Z,3.76
2017-11-30T08:58:54.994Z,3.79
2017-11-30T09:00:03.800Z,3.87
2017-11-30T09:01:13.214Z,3.87
2017-11-30T09:02:22.105Z,3.84
2017-11-30T09:03:31.241Z,3.84
2017-11-30T09:04:40.079Z,3.83
2017-11-30T09:05:48.924Z,3.9
2017-11-30T09:06:57.766Z,3.79
2017-11-30T09:08:06.623Z,3.79
2017-11-30T09:09:15.735Z,3.83
2017-11-30T09:10:24.577Z,3.9
2017-11-30T09:11:33.421Z,3.78
2017-11-30T09:12:42.545Z,3.86
2017-11-30T09:13:51.439Z,3.86
2017-11-30T09:15:00.279Z,3.88
2017-11-30T09:16:09.135Z,3.83
2017-11-30T09:17:17.972Z,3.83
2017-11-30T09:18:26.816Z,3.86
2017-11-30T09:19:35.813Z,3.91
2017-11-30T09:20:44.663Z,3.88
2017-11-30T09:21:53.505Z,3.9
2017-11-30T09:23:02.351Z,3.86
2017-11-30T09:24:11.200Z,3.93
2017-11-30T09:25:20.479Z,3.98
2017-11-30T09:26:29.321Z,3.91
2017-11-30T09:27:38.163Z,4.08
2017-11-30T09:28:47.009Z,4.02
2017-11-30T09:29:55.856Z,4.04
2017-11-30T09:31:04.849Z,4.12
2017-11-30T09:32:13.692Z,4.08
2017-11-30T09:33:22.818Z,4.12
2017-11-30T09:34:31.662Z,4.14
2017-11-30T09:35:40.502Z,4.18
2017-11-30T09:36:49.354Z,4.2
2017-11-30T09:37:58.196Z,4.22
2017-11-30T09:39:07.041Z,4.24
2017-11-30T09:40:16.169Z,4.18
2017-11-30T09:41:25.012Z,4.23
2017-11-30T09:42:34.537Z,4.23
2017-11-30T09:43:43.380Z,4.14
2017-11-30T09:44:52.225Z,4.24
2017-11-30T09:46:01.356Z,4.29
2017-11-30T09:47:10.199Z,4.24
2017-11-30T09:48:19.044Z,4.3
2017-11-30T09:49:27.889Z,4.18
2017-11-30T09:50:36.771Z,4.26
2017-11-30T09:51:45.581Z,4.23
2017-11-30T09:52:54.421Z,4.26
2017-11-30T09:54:03.317Z,4.22
2017-11-30T09:55:12.470Z,4.16
2017-11-30T09:56:21.314Z,4.15
2017-11-30T09:57:30.159Z,4.09
2017-11-30T09:58:39.009Z,4.15
2017-11-30T09:59:47.947Z,4.12
2017-11-30T10:00:57.071Z,4.14
2017-11-30T10:02:06.203Z,4.06
2017-11-30T10:03:15.330Z,4.09
2017-11-30T10:04:24.174Z,4.14
2017-11-30T10:05:33.407Z,4.11
2017-11-30T10:06:42.256Z,4.12
2017-11-30T10:07:51.098Z,4.22
2017-11-30T10:08:59.944Z,4.18
2017-11-30T10:10:08.789Z,4.14
2017-11-30T10:11:17.731Z,4.24
2017-11-30T10:12:26.576Z,4.32
2017-11-30T10:13:35.419Z,4.26
2017-11-30T10:14:44.265Z,4.32
2017-11-30T10:15:53.389Z,4.3
2017-11-30T10:17:02.387Z,4.36
2017-11-30T10:18:11.523Z,4.37
2017-11-30T10:19:20.655Z,4.32
2017-11-30T10:20:29.496Z,4.29
2017-11-30T10:21:38.637Z,4.29
2017-11-30T10:22:47.686Z,4.29
2017-11-30T10:23:56.813Z,4.32
2017-11-30T10:25:05.654Z,4.33
2017-11-30T10:26:14.498Z,4.29
2017-11-30T10:27:23.340Z,4.32
2017-11-30T10:28:32.184Z,4.3
2017-11-30T10:29:41.031Z,4.34
2017-11-30T10:30:49.884Z,4.34
2017-11-30T10:31:58.720Z,4.42
2017-11-30T10:33:07.616Z,4.45
2017-11-30T10:34:16.662Z,4.45
2017-11-30T10:35:25.507Z,4.44
2017-11-30T10:36:34.351Z,4.52
2017-11-30T10:37:43.199Z,4.44
2017-11-30T10:38:52.041Z,4.41
2017-11-30T10:40:00.936Z,4.44
2017-11-30T10:41:09.781Z,4.47
2017-11-30T10:42:18.626Z,4.47
2017-11-30T10:43:27.472Z,4.47
2017-11-30T10:44:36.315Z,4.47
2017-11-30T10:45:45.363Z,4.5
2017-11-30T10:46:54.212Z,4.51
2017-11-30T10:48:03.336Z,4.59
2017-11-30T10:49:12.515Z,4.63
2017-11-30T10:50:21.362Z,4.7
2017-11-30T10:51:30.209Z,4.75
2017-11-30T10:52:39.052Z,4.84
2017-11-30T10:53:47.898Z,4.78
2017-11-30T10:54:56.744Z,4.78
2017-11-30T10:56:05.591Z,4.88
2017-11-30T10:57:14.871Z,4.73
2017-11-30T10:58:23.719Z,4.84
2017-11-30T10:59:32.567Z,4.96
2017-11-30T11:00:41.415Z,4.96
2017-11-30T11:01:50.267Z,4.97
2017-11-30T11:02:59.253Z,4.97
2017-11-30T11:04:08.105Z,4.91
2017-11-30T11:05:16.945Z,4.91
2017-11-30T11:06:25.791Z,4.85
2017-11-30T11:07:34.636Z,4.86
2017-11-30T11:08:43.580Z,4.96
2017-11-30T11:09:52.427Z,5.03
2017-11-30T11:11:01.269Z,4.97
2017-11-30T11:12:10.119Z,5.02
2017-11-30T11:13:19.255Z,4.94
2017-11-30T11:14:28.203Z,4.99
2017-11-30T11:15:37.050Z,5.02
2017-11-30T11:16:45.896Z,4.92
2017-11-30T11:17:54.743Z,4.84
2017-11-30T11:19:03.587Z,4.78
2017-11-30T11:20:12.537Z,4.88
2017-11-30T11:21:21.382Z,4.75
2017-11-30T11:22:30.224Z,4.85
2017-11-30T11:23:39.071Z,4.91
2017-11-30T11:24:48.197Z,5
2017-11-30T11:25:57.093Z,4.91
2017-11-30T11:27:05.938Z,4.85
2017-11-30T11:28:15.058Z,4.86
2017-11-30T11:29:24.178Z,4.91
2017-11-30T11:30:33.024Z,4.99
2017-11-30T11:31:42.021Z,4.99
2017-11-30T11:32:51.144Z,4.92
2017-11-30T11:33:59.993Z,4.94
2017-11-30T11:35:09.116Z,4.99
2017-11-30T11:36:17.960Z,4.94
2017-11-30T11:37:26.908Z,4.91
2017-11-30T11:38:35.752Z,4.92
2017-11-30T11:39:44.597Z,4.85
2017-11-30T11:40:53.731Z,4.78
2017-11-30T11:42:02.864Z,4.86
2017-11-30T11:43:11.758Z,4.97
2017-11-30T11:44:20.606Z,4.97
2017-11-30T11:45:29.452Z,4.99
2017-11-30T11:46:38.301Z,5.06
2017-11-30T11:47:47.152Z,5
2017-11-30T11:48:56.039Z,4.99
2017-11-30T11:50:04.885Z,4.91
2017-11-30T11:51:13.727Z,4.96
2017-11-30T11:52:22.567Z,4.96
2017-11-30T11:53:31.711Z,4.91
2017-11-30T11:54:40.656Z,4.91
2017-11-30T11:55:49.505Z,4.97
2017-11-30T11:56:58.353Z,5.02
2017-11-30T11:58:07.208Z,4.99
2017-11-30T11:59:16.044Z,4.92
2017-11-30T12:00:25.042Z,5.03
2017-11-30T12:01:33.887Z,4.89
2017-11-30T12:02:42.733Z,4.96
2017-11-30T12:03:51.581Z,5.04
2017-11-30T12:05:00.424Z,4.94
2017-11-30T12:06:09.418Z,5.02
2017-11-30T12:07:18.239Z,5.03
2017-11-30T12:08:27.067Z,4.96
2017-11-30T12:09:35.894Z,5.02
2017-11-30T12:10:44.720Z,5.02
2017-11-30T12:11:53.548Z,5.06
2017-11-30T12:13:02.657Z,5.06
2017-11-30T12:14:11.484Z,5.02
2017-11-30T12:15:20.313Z,5
2017-11-30T12:16:29.143Z,5.04
2017-11-30T12:17:38.266Z,5.12
2017-11-30T12:18:47.085Z,5.04
2017-11-30T12:19:55.914Z,5.06
2017-11-30T12:21:04.745Z,4.96
2017-11-30T12:22:13.721Z,4.99
2017-11-30T12:23:22.548Z,5.04
2017-11-30T12:24:31.376Z,5
2017-11-30T12:25:40.222Z,5.02
2017-11-30T12:26:49.035Z,5.03
2017-11-30T12:27:58.141Z,4.97
2017-11-30T12:29:06.973Z,4.92
2017-11-30T12:30:15.803Z,4.94
2017-11-30T12:31:24.634Z,4.84
2017-11-30T12:32:33.458Z,4.8
2017-11-30T12:33:42.293Z,4.75
2017-11-30T12:34:51.123Z,4.8
2017-11-30T12:36:00.245Z,4.8
2017-11-30T12:37:09.122Z,4.78
2017-11-30T12:38:18.234Z,4.91
2017-11-30T12:39:27.360Z,5.03
2017-11-30T12:40:36.746Z,4.94
2017-11-30T12:41:45.596Z,4.89
2017-11-30T12:42:54.572Z,4.94
2017-11-30T12:44:03.399Z,4.96
2017-11-30T12:45:12.465Z,4.96
2017-11-30T12:46:21.588Z,4.97
2017-11-30T12:47:30.419Z,5
2017-11-30T12:48:39.797Z,5.02
2017-11-30T12:49:48.921Z,5.02
2017-11-30T12:50:57.962Z,5.03
2017-11-30T12:52:07.081Z,4.97
2017-11-30T12:53:15.912Z,5
2017-11-30T12:54:25.147Z,4.94
2017-11-30T12:55:34.259Z,4.97
2017-11-30T12:56:43.101Z,4.96
2017-11-30T12:57:51.931Z,4.97
2017-11-30T12:59:00.757Z,5.04
2017-11-30T13:00:09.635Z,4.97
2017-11-30T13:01:18.466Z,5.04
2017-11-30T13:02:27.293Z,5.02
2017-11-30T13:03:36.132Z,5.02
2017-11-30T13:04:44.959Z,5
2017-11-30T13:05:53.896Z,5
2017-11-30T13:07:02.728Z,4.99
2017-11-30T13:08:11.554Z,4.94
2017-11-30T13:09:20.446Z,4.92
2017-11-30T13:10:29.307Z,4.94
2017-11-30T13:11:38.238Z,4.82
2017-11-30T13:12:47.064Z,4.78
2017-11-30T13:13:55.932Z,4.7
2017-11-30T13:15:04.764Z,4.73
2017-11-30T13:16:13.590Z,4.75
2017-11-30T13:17:22.531Z,4.86
2017-11-30T13:18:31.358Z,4.73
2017-11-30T13:19:40.185Z,4.78
2017-11-30T13:20:49.013Z,4.73
2017-11-30T13:21:57.844Z,4.72
2017-11-30T13:23:06.923Z,4.7
2017-11-30T13:24:15.753Z,4.58
2017-11-30T13:25:24.581Z,4.52
2017-11-30T13:26:33.408Z,4.51
2017-11-30T13:27:42.237Z,4.55
2017-11-30T13:28:51.388Z,4.45
2017-11-30T13:30:00.214Z,4.42
2017-11-30T13:31:09.041Z,4.59
2017-11-30T13:32:17.870Z,4.6
2017-11-30T13:33:26.700Z,4.52
2017-11-30T13:34:36.002Z,4.52
2017-11-30T13:35:44.828Z,4.54
2017-11-30T13:36:53.669Z,4.5
2017-11-30T13:38:02.497Z,4.66
2017-11-30T13:39:11.599Z,4.59
2017-11-30T13:40:20.476Z,4.55
2017-11-30T13:41:29.306Z,4.65
2017-11-30T13:42:38.415Z,4.55
2017-11-30T13:43:47.246Z,4.5
2017-11-30T13:44:56.074Z,4.54
2017-11-30T13:46:04.901Z,4.55
2017-11-30T13:47:13.738Z,4.6
2017-11-30T13:48:22.572Z,4.69
2017-11-30T13:49:31.398Z,4.72
2017-11-30T13:50:40.224Z,4.73
2017-11-30T13:51:49.356Z,4.86
2017-11-30T13:52:58.187Z,4.77
2017-11-30T13:54:07.022Z,4.8
2017-11-30T13:55:15.919Z,4.82
2017-11-30T13:56:25.058Z,4.73
2017-11-30T13:57:34.189Z,4.82
2017-11-30T13:58:43.017Z,4.73
2017-11-30T13:59:51.854Z,4.7
2017-11-30T14:01:00.703Z,4.63
2017-11-30T14:02:09.535Z,4.72
2017-11-30T14:03:18.663Z,4.72
2017-11-30T14:04:27.493Z,4.73
2017-11-30T14:05:36.323Z,4.75
2017-11-30T14:06:45.147Z,4.7
2017-11-30T14:07:54.249Z,4.73
2017-11-30T14:09:03.231Z,4.75
2017-11-30T14:10:12.331Z,4.7
2017-11-30T14:11:21.158Z,4.7
2017-11-30T14:12:29.985Z,4.73
2017-11-30T14:13:38.808Z,4.75
2017-11-30T14:14:47.787Z,4.77
2017-11-30T14:15:56.615Z,4.67
2017-11-30T14:17:05.444Z,4.69
2017-11-30T14:18:14.276Z,4.66
2017-11-30T14:19:23.373Z,4.7
2017-11-30T14:20:32.455Z,4.75
2017-11-30T14:21:41.557Z,4.72
2017-11-30T14:22:50.387Z,4.67
2017-11-30T14:23:59.216Z,4.75
2017-11-30T14:25:08.317Z,4.77
2017-11-30T14:26:17.293Z,4.73
2017-11-30T14:27:26.124Z,4.88
2017-11-30T14:28:34.948Z,4.86
2017-11-30T14:29:43.773Z,4.94
2017-11-30T14:30:52.601Z,4.92
2017-11-30T14:32:01.752Z,4.8
2017-11-30T14:33:10.588Z,4.7
2017-11-30T14:34:19.427Z,4.72
2017-11-30T14:35:28.262Z,4.77
2017-11-30T14:36:37.104Z,4.78
2017-11-30T14:37:46.091Z,4.7
2017-11-30T14:38:54.924Z,4.75
2017-11-30T14:40:03.752Z,4.62
2017-11-30T14:41:12.578Z,4.69
2017-11-30T14:42:21.408Z,4.6
2017-11-30T14:43:30.389Z,4.65
2017-11-30T14:44:39.215Z,4.52
2017-11-30T14:45:48.044Z,4.63
2017-11-30T14:46:56.871Z,4.65
2017-11-30T14:48:05.698Z,4.65
2017-11-30T14:49:14.527Z,4.62
2017-11-30T14:50:23.356Z,4.66
2017-11-30T14:51:32.457Z,4.48
2017-11-30T14:52:41.281Z,4.52
2017-11-30T14:53:50.386Z,4.44
2017-11-30T14:54:59.367Z,4.45
2017-11-30T14:56:08.190Z,4.4
2017-11-30T14:57:17.015Z,4.42
2017-11-30T14:58:26.126Z,4.45
2017-11-30T14:59:34.952Z,4.47
2017-11-30T15:00:43.929Z,4.44
2017-11-30T15:01:53.033Z,4.45
2017-11-30T15:03:01.865Z,4.5
2017-11-30T15:04:10.692Z,4.44
2017-11-30T15:05:19.520Z,4.4
2017-11-30T15:06:28.347Z,4.42
2017-11-30T15:07:37.175Z,4.48
2017-11-30T15:08:46.002Z,4.47
2017-11-30T15:09:54.864Z,4.4
2017-11-30T15:11:03.657Z,4.41
2017-11-30T15:12:12.485Z,4.34
2017-11-30T15:13:21.313Z,4.45
2017-11-30T15:14:30.141Z,4.44
2017-11-30T15:15:38.999Z,4.44
2017-11-30T15:16:48.097Z,4.41
2017-11-30T15:17:57.266Z,4.44
2017-11-30T15:19:06.094Z,4.44
2017-11-30T15:20:14.921Z,4.44
2017-11-30T15:21:23.751Z,4.44